Terminal Aerodrome Forecast
Issued by NWS Burlington, VT

Home | Current Version | Previous Version | Text Only | Print | Product List | Glossary On
Versions: 1 2 3 4 5 6 7 8 9 10 11 12 13 14 15
000
FTUS41 KBTV 252321
TAFBTV
TAF
KBTV 252321Z 2600/2624 18008KT P6SM VCSH OVC080
     FM260900 18012KT P6SM SCT050
     FM261400 22012G18KT P6SM SCT050=

USA.gov is the U.S. government's official web portal to all federal, state and local government web resources and services.